Time;durP1;ratioP1;P1;durP2;ratioP2;P2;SDS_P1;SDS_P2;PMS_P1;PMS_P2;Temp;Humidity;BMP_temperature;BMP_pressure;BME280_temperature;BME280_humidity;BME280_pressure;Samples;Min_cycle;Max_cycle;Signal;HPM_P1;HPM_P2
2022/04/03 00:00:46;;;;;;;25.87;14.00;;;2.30;99.90;;;;;;5013126;28;20188;-69
2022/04/03 00:03:11;;;;;;;25.93;14.23;;;2.30;99.90;;;;;;5013310;28;20217;-70
2022/04/03 00:05:41;;;;;;;27.60;14.63;;;2.30;99.90;;;;;;5012709;28;20190;-70
2022/04/03 00:08:08;;;;;;;19.13;10.47;;;2.30;99.90;;;;;;5002054;28;20198;-71
2022/04/03 00:10:36;;;;;;;28.43;14.63;;;2.20;99.90;;;;;;5033023;28;20522;-71
2022/04/03 00:13:03;;;;;;;25.87;13.53;;;2.20;99.90;;;;;;5032281;28;20184;-71
2022/04/03 00:15:29;;;;;;;23.23;12.73;;;2.10;99.90;;;;;;5032508;28;20276;-72
2022/04/03 00:17:55;;;;;;;25.80;13.50;;;2.00;99.90;;;;;;5014651;28;20641;-71
2022/04/03 00:20:20;;;;;;;23.30;12.83;;;1.90;99.90;;;;;;5014773;28;20180;-70
2022/04/03 00:22:50;;;;;;;29.07;14.10;;;1.90;99.90;;;;;;5032343;28;20615;-67
2022/04/03 00:25:18;;;;;;;28.93;13.67;;;1.90;99.90;;;;;;5032668;28;20185;-68
2022/04/03 00:27:47;;;;;;;27.00;13.97;;;1.90;99.90;;;;;;5016082;28;20249;-67
2022/04/03 00:30:13;;;;;;;27.30;13.77;;;1.80;99.90;;;;;;5012685;28;20185;-68
2022/04/03 00:32:40;;;;;;;31.00;16.20;;;1.80;99.90;;;;;;5012717;28;20271;-67
2022/04/03 00:35:06;;;;;;;28.77;15.40;;;1.80;99.90;;;;;;5017926;28;20965;-67
2022/04/03 00:37:32;;;;;;;25.67;13.43;;;1.80;99.90;;;;;;5032195;28;20214;-69
2022/04/03 00:39:58;;;;;;;26.50;15.27;;;1.90;99.90;;;;;;5031872;28;20180;-68
2022/04/03 00:42:25;;;;;;;24.83;13.37;;;1.80;99.90;;;;;;5014437;28;20184;-67
2022/04/03 00:44:50;;;;;;;27.27;12.87;;;1.60;99.90;;;;;;5032010;28;20199;-67
2022/04/03 00:47:18;;;;;;;28.80;14.43;;;1.60;99.90;;;;;;5014377;28;20187;-67
2022/04/03 00:49:45;;;;;;;24.77;13.90;;;1.50;99.90;;;;;;5030959;28;20693;-67
2022/04/03 00:52:11;;;;;;;27.33;15.00;;;1.50;99.90;;;;;;5031905;28;20629;-66
2022/04/03 00:54:37;;;;;;;24.83;13.63;;;1.50;99.90;;;;;;5014107;28;20187;-65
2022/04/03 00:57:07;;;;;;;22.73;12.07;;;1.40;99.90;;;;;;5032161;28;20175;-65
2022/04/03 00:59:34;;;;;;;24.37;13.93;;;1.30;99.90;;;;;;5031518;28;20207;-66
2022/04/03 01:02:00;;;;;;;26.20;14.67;;;1.30;99.90;;;;;;5032226;28;20187;-65
2022/04/03 01:04:26;;;;;;;25.23;13.63;;;1.30;99.90;;;;;;5031490;28;20604;-65
2022/04/03 01:06:52;;;;;;;32.07;15.33;;;1.30;99.90;;;;;;5031702;28;20182;-65
2022/04/03 01:09:18;;;;;;;27.67;14.17;;;1.30;99.90;;;;;;5014256;28;20195;-65
2022/04/03 01:11:45;;;;;;;29.87;15.10;;;1.20;99.90;;;;;;5012210;28;20268;-65
2022/04/03 01:14:11;;;;;;;28.63;16.17;;;1.20;99.90;;;;;;5011711;28;20721;-65
2022/04/03 01:16:37;;;;;;;31.47;17.90;;;1.20;99.90;;;;;;5012440;28;20274;-65
2022/04/03 01:19:04;;;;;;;30.80;15.47;;;1.10;99.90;;;;;;5011507;28;20211;-65
2022/04/03 01:21:30;;;;;;;27.60;15.67;;;1.10;99.90;;;;;;5011997;28;20184;-66
2022/04/03 01:23:56;;;;;;;31.40;15.60;;;1.10;99.90;;;;;;5012376;28;20179;-66
2022/04/03 01:26:25;;;;;;;29.97;15.43;;;1.10;99.90;;;;;;5017464;28;20534;-65
2022/04/03 01:28:51;;;;;;;33.93;16.70;;;1.20;99.90;;;;;;5031421;28;20640;-65
2022/04/03 01:31:18;;;;;;;26.10;13.07;;;1.10;99.90;;;;;;5031713;28;20225;-65
2022/04/03 01:33:44;;;;;;;33.43;17.27;;;1.10;99.90;;;;;;5031541;28;20245;-66
2022/04/03 01:36:10;;;;;;;30.47;16.57;;;1.20;99.90;;;;;;5016982;28;20566;-65
2022/04/03 01:38:35;;;;;;;30.43;15.27;;;1.10;99.90;;;;;;5022342;28;20667;-65
2022/04/03 01:41:01;;;;;;;33.43;16.67;;;1.10;99.90;;;;;;5030917;28;20183;-64
2022/04/03 01:43:27;;;;;;;34.73;16.50;;;1.10;99.90;;;;;;5031830;28;20509;-64
2022/04/03 01:45:53;;;;;;;30.43;16.07;;;1.10;99.90;;;;;;5031121;28;20636;-64
2022/04/03 01:48:19;;;;;;;37.97;17.47;;;1.10;99.90;;;;;;5013723;28;20832;-65
2022/04/03 01:50:46;;;;;;;31.57;15.40;;;1.10;99.90;;;;;;5013071;28;20564;-64
2022/04/03 01:53:12;;;;;;;31.60;15.13;;;1.10;99.90;;;;;;5013606;28;20183;-64
2022/04/03 01:55:38;;;;;;;31.43;16.43;;;1.10;99.90;;;;;;5013615;28;20343;-64
2022/04/03 01:58:08;;;;;;;26.30;13.13;;;1.00;99.90;;;;;;5013519;28;20710;-64
2022/04/03 02:00:34;;;;;;;33.47;17.07;;;1.00;99.90;;;;;;5031378;28;20195;-65
2022/04/03 02:03:00;;;;;;;31.70;16.20;;;1.00;99.90;;;;;;5030920;28;20175;-65
2022/04/03 02:05:25;;;;;;;34.23;16.70;;;1.10;99.90;;;;;;5030929;28;20186;-64
2022/04/03 02:07:51;;;;;;;33.87;17.07;;;1.10;99.90;;;;;;5030947;28;20191;-65
2022/04/03 02:10:17;;;;;;;34.77;16.13;;;1.00;99.90;;;;;;5013345;28;20178;-65
2022/04/03 02:12:43;;;;;;;34.43;17.57;;;1.00;99.90;;;;;;5031057;28;20223;-64
2022/04/03 02:15:11;;;;;;;31.70;15.77;;;1.10;99.90;;;;;;5031031;28;20179;-65
2022/04/03 02:17:40;;;;;;;27.73;14.67;;;1.10;99.90;;;;;;5031105;28;20230;-64
2022/04/03 02:20:09;;;;;;;31.33;14.73;;;1.10;99.90;;;;;;5032104;28;20273;-64
2022/04/03 02:22:35;;;;;;;32.27;15.10;;;1.10;99.90;;;;;;5034685;28;20635;-64
2022/04/03 02:25:03;;;;;;;34.17;16.97;;;1.10;99.90;;;;;;5016585;28;20585;-64
2022/04/03 02:27:30;;;;;;;30.13;14.67;;;1.00;99.90;;;;;;5020302;28;20186;-64
2022/04/03 02:29:56;;;;;;;32.50;16.17;;;1.00;99.90;;;;;;5014622;28;20188;-63
2022/04/03 02:32:22;;;;;;;31.90;16.13;;;0.90;99.90;;;;;;4997369;28;20184;-63
2022/04/03 02:34:47;;;;;;;31.17;13.97;;;0.90;99.90;;;;;;5017634;28;20612;-63
2022/04/03 02:37:14;;;;;;;34.87;18.90;;;0.90;99.90;;;;;;5034380;28;20323;-63
2022/04/03 02:39:41;;;;;;;31.33;16.00;;;0.90;99.90;;;;;;5016719;28;20198;-63
2022/04/03 02:42:07;;;;;;;37.50;19.60;;;0.80;99.90;;;;;;5033831;28;20175;-63
2022/04/03 02:44:34;;;;;;;31.77;16.73;;;0.80;99.90;;;;;;5034345;28;20174;-63
2022/04/03 02:47:00;;;;;;;33.93;15.90;;;0.70;99.90;;;;;;5032581;28;20199;-63
2022/04/03 02:49:26;;;;;;;34.97;17.53;;;0.70;99.90;;;;;;5034000;28;20705;-63
2022/04/03 02:51:52;;;;;;;29.13;15.33;;;0.70;99.90;;;;;;5034316;28;20254;-63
2022/04/03 02:54:18;;;;;;;29.63;15.33;;;0.70;99.90;;;;;;5016469;28;20190;-62
2022/04/03 02:56:43;;;;;;;37.60;19.23;;;0.60;99.90;;;;;;5033832;28;20190;-63
2022/04/03 02:59:09;;;;;;;35.77;16.63;;;0.70;99.90;;;;;;5033720;28;20663;-63
2022/04/03 03:01:35;;;;;;;34.30;18.27;;;0.70;99.90;;;;;;5034068;28;20183;-62
2022/04/03 03:04:01;;;;;;;35.17;17.90;;;0.70;99.90;;;;;;5033430;28;20191;-63
2022/04/03 03:06:27;;;;;;;30.93;14.93;;;0.70;99.90;;;;;;5033987;28;20225;-62
2022/04/03 03:08:53;;;;;;;29.17;14.37;;;0.70;99.90;;;;;;5015715;28;20191;-63
2022/04/03 03:11:19;;;;;;;31.70;15.67;;;0.70;99.90;;;;;;5033514;28;20205;-63
2022/04/03 03:13:44;;;;;;;37.33;18.83;;;0.70;99.90;;;;;;5033668;28;20214;-62
2022/04/03 03:16:10;;;;;;;34.87;16.73;;;0.70;99.90;;;;;;5032077;28;20193;-62
2022/04/03 03:18:36;;;;;;;31.37;16.27;;;0.60;99.90;;;;;;5031997;28;20245;-63
2022/04/03 03:21:01;;;;;;;32.37;15.10;;;0.70;99.90;;;;;;5033773;28;20214;-62
2022/04/03 03:23:29;;;;;;;31.63;16.87;;;0.60;99.90;;;;;;5015922;28;20174;-63
2022/04/03 03:25:55;;;;;;;34.40;16.30;;;0.70;99.90;;;;;;5031397;28;20187;-63
2022/04/03 03:28:21;;;;;;;40.13;20.47;;;0.70;99.90;;;;;;4996321;28;20253;-62
2022/04/03 03:30:46;;;;;;;38.87;18.33;;;0.60;99.90;;;;;;5013830;28;20219;-62
2022/04/03 03:33:12;;;;;;;43.27;20.80;;;0.60;99.90;;;;;;5013659;28;20442;-62
2022/04/03 03:35:38;;;;;;;40.90;19.50;;;0.60;99.90;;;;;;5002659;28;20587;-62
2022/04/03 03:38:04;;;;;;;36.73;17.40;;;0.70;99.90;;;;;;5019808;28;20295;-63
2022/04/03 03:40:29;;;;;;;39.57;18.67;;;0.60;99.90;;;;;;5033365;28;20700;-63
2022/04/03 03:42:56;;;;;;;41.60;20.33;;;0.70;99.90;;;;;;5033075;28;20214;-63
2022/04/03 03:45:22;;;;;;;37.93;19.23;;;0.70;99.90;;;;;;5033329;28;20185;-63
2022/04/03 03:47:48;;;;;;;25.83;11.67;;;0.60;99.90;;;;;;5015295;28;20195;-64
2022/04/03 03:50:15;;;;;;;35.33;16.53;;;0.60;99.90;;;;;;5014619;28;20242;-64
2022/04/03 03:52:44;;;;;;;38.63;18.37;;;0.60;99.90;;;;;;5015411;28;20182;-63
2022/04/03 03:55:10;;;;;;;42.77;19.87;;;0.60;99.90;;;;;;5033009;28;20261;-63
2022/04/03 03:57:38;;;;;;;31.60;15.93;;;0.60;99.90;;;;;;5032374;28;20214;-63
2022/04/03 04:00:05;;;;;;;38.53;18.37;;;0.60;99.90;;;;;;5032722;28;20226;-63
2022/04/03 04:02:31;;;;;;;35.80;17.10;;;0.60;99.90;;;;;;5033189;28;20178;-64
2022/04/03 04:04:57;;;;;;;43.50;20.77;;;0.60;99.90;;;;;;5032621;28;20526;-64
2022/04/03 04:07:23;;;;;;;40.43;19.70;;;0.60;99.90;;;;;;5031926;28;20191;-63
2022/04/03 04:09:48;;;;;;;39.00;19.77;;;0.60;99.90;;;;;;5012871;28;20318;-63
2022/04/03 04:12:14;;;;;;;39.40;18.63;;;0.60;99.90;;;;;;4995030;28;20190;-64
2022/04/03 04:14:40;;;;;;;36.03;17.97;;;0.60;99.90;;;;;;5013027;28;20676;-64
2022/04/03 04:17:08;;;;;;;40.60;20.87;;;0.60;99.90;;;;;;5012460;28;20271;-63
2022/04/03 04:19:34;;;;;;;38.07;17.63;;;0.60;99.90;;;;;;5012615;28;20258;-64
2022/04/03 04:22:00;;;;;;;37.60;19.20;;;0.60;99.90;;;;;;5012401;28;20184;-64
2022/04/03 04:24:26;;;;;;;38.60;18.77;;;0.60;99.90;;;;;;5012264;28;20194;-63
2022/04/03 04:26:51;;;;;;;41.70;20.07;;;0.70;99.90;;;;;;5021996;28;20214;-64
2022/04/03 04:29:17;;;;;;;36.70;17.77;;;0.70;99.90;;;;;;5014683;28;20500;-64
2022/04/03 04:31:43;;;;;;;43.63;21.27;;;0.70;99.90;;;;;;5014740;28;20182;-63
2022/04/03 04:34:08;;;;;;;43.07;23.73;;;0.70;99.90;;;;;;5014259;28;20197;-63
2022/04/03 04:36:34;;;;;;;39.40;19.43;;;0.70;99.90;;;;;;5014562;28;20192;-64
2022/04/03 04:39:00;;;;;;;40.90;18.70;;;0.80;99.90;;;;;;5025937;28;20685;-63
2022/04/03 04:41:26;;;;;;;41.73;18.77;;;0.70;99.90;;;;;;5014689;28;20194;-64
2022/04/03 04:43:52;;;;;;;39.23;19.70;;;0.70;99.90;;;;;;5031540;28;20185;-64
2022/04/03 04:46:17;;;;;;;37.30;20.17;;;0.80;99.90;;;;;;5032588;28;20341;-64
2022/04/03 04:48:43;;;;;;;34.80;18.13;;;0.80;99.90;;;;;;5031738;28;20624;-65
2022/04/03 04:51:09;;;;;;;39.30;19.57;;;0.90;99.90;;;;;;5031417;28;20313;-65
2022/04/03 04:53:35;;;;;;;37.57;18.27;;;0.90;99.90;;;;;;5014513;28;20624;-64
2022/04/03 04:56:01;;;;;;;43.93;19.17;;;0.80;99.90;;;;;;4997598;28;20222;-64
2022/04/03 04:58:27;;;;;;;40.23;19.90;;;0.90;99.90;;;;;;5031306;28;20666;-65
2022/04/03 05:00:53;;;;;;;34.13;18.33;;;0.80;99.90;;;;;;5031753;28;20174;-64
2022/04/03 05:03:19;;;;;;;34.47;17.50;;;0.80;99.90;;;;;;5031295;28;20660;-65
2022/04/03 05:05:45;;;;;;;38.27;17.73;;;0.80;99.90;;;;;;5031932;28;20278;-64
2022/04/03 05:08:12;;;;;;;34.00;17.63;;;0.90;99.90;;;;;;5013874;28;20272;-64
2022/04/03 05:10:38;;;;;;;36.23;19.10;;;0.90;99.90;;;;;;5031832;28;20190;-65
2022/04/03 05:13:09;;;;;;;38.37;17.50;;;0.90;99.90;;;;;;5014150;28;20653;-65
2022/04/03 05:15:35;;;;;;;36.07;16.33;;;1.00;99.90;;;;;;5031743;28;20187;-65
2022/04/03 05:18:01;;;;;;;36.80;17.90;;;0.90;99.90;;;;;;5031128;28;20217;-67
2022/04/03 05:20:27;;;;;;;37.07;17.87;;;0.90;99.90;;;;;;5030243;28;20187;-65
2022/04/03 05:22:53;;;;;;;34.20;16.23;;;0.90;99.90;;;;;;5031210;28;20260;-64
2022/04/03 05:25:19;;;;;;;33.63;19.10;;;1.00;99.90;;;;;;5031500;28;20182;-64
2022/04/03 05:27:45;;;;;;;32.63;16.23;;;1.00;99.90;;;;;;5014690;28;20231;-65
2022/04/03 05:30:12;;;;;;;32.43;16.80;;;1.10;99.90;;;;;;5011311;28;20233;-64
2022/04/03 05:32:38;;;;;;;30.53;16.37;;;1.10;99.90;;;;;;5011167;28;20191;-64
2022/04/03 05:35:05;;;;;;;34.30;16.90;;;1.10;99.90;;;;;;5016951;28;20178;-65
2022/04/03 05:37:32;;;;;;;29.70;15.97;;;1.00;99.90;;;;;;5030830;28;20650;-64
2022/04/03 05:39:57;;;;;;;31.03;16.73;;;1.00;99.90;;;;;;5031056;28;20218;-65
2022/04/03 05:42:23;;;;;;;22.63;10.63;;;1.00;99.90;;;;;;5031535;28;20215;-64
2022/04/03 05:44:49;;;;;;;26.53;12.73;;;1.10;99.90;;;;;;5031397;28;20233;-64
2022/04/03 05:47:19;;;;;;;31.67;15.90;;;1.00;99.90;;;;;;5031076;28;20218;-64
2022/04/03 05:49:45;;;;;;;29.87;15.90;;;1.00;99.90;;;;;;5013217;28;20235;-64
2022/04/03 05:52:11;;;;;;;32.40;16.67;;;1.10;99.90;;;;;;5031129;28;20186;-64
2022/04/03 05:54:37;;;;;;;30.77;16.27;;;1.10;99.90;;;;;;5031300;28;20704;-64
2022/04/03 05:57:03;;;;;;;28.77;15.60;;;1.00;99.90;;;;;;5035125;28;20622;-64
2022/04/03 05:59:29;;;;;;;34.03;16.70;;;1.10;99.90;;;;;;5035140;28;20194;-65
2022/04/03 06:01:55;;;;;;;36.13;17.50;;;1.20;99.90;;;;;;5035166;28;20179;-64
2022/04/03 06:04:20;;;;;;;31.80;16.33;;;1.20;99.90;;;;;;5034869;28;20183;-64
2022/04/03 06:06:46;;;;;;;29.47;16.83;;;1.20;99.90;;;;;;5035220;28;20194;-64
2022/04/03 06:09:12;;;;;;;36.33;17.10;;;1.10;99.90;;;;;;5018748;28;20298;-64
2022/04/03 06:11:38;;;;;;;31.67;17.17;;;1.10;99.90;;;;;;4997988;28;20643;-65
2022/04/03 06:14:04;;;;;;;25.27;12.50;;;1.10;99.90;;;;;;4997047;28;20180;-63
2022/04/03 06:16:29;;;;;;;30.23;15.80;;;1.10;99.90;;;;;;5014895;28;20188;-64
2022/04/03 06:18:55;;;;;;;30.40;17.03;;;1.10;99.90;;;;;;5014223;28;20215;-65
2022/04/03 06:21:21;;;;;;;29.90;16.63;;;1.10;99.90;;;;;;5015081;28;20198;-64
2022/04/03 06:23:47;;;;;;;30.83;15.77;;;1.30;99.90;;;;;;5015064;28;20176;-64
2022/04/03 06:26:13;;;;;;;25.43;13.13;;;1.30;99.90;;;;;;5018963;28;20602;-66
2022/04/03 06:28:39;;;;;;;28.37;14.03;;;1.40;99.90;;;;;;5010758;28;20192;-64
2022/04/03 06:31:05;;;;;;;24.33;13.17;;;1.30;99.90;;;;;;5012932;28;20592;-63
2022/04/03 06:33:31;;;;;;;28.33;15.30;;;1.30;99.90;;;;;;5014452;28;20215;-64
2022/04/03 06:35:57;;;;;;;30.03;16.17;;;1.40;99.90;;;;;;5014529;28;20242;-63
2022/04/03 06:38:23;;;;;;;22.40;13.07;;;1.60;99.90;;;;;;5023784;28;20220;-66
2022/04/03 06:40:51;;;;;;;16.23;9.13;;;1.60;99.90;;;;;;5016794;28;20221;-65
2022/04/03 06:43:22;;;;;;;21.60;11.77;;;1.60;99.90;;;;;;5033942;28;20171;-61
2022/04/03 06:45:49;;;;;;;21.53;12.20;;;1.60;99.90;;;;;;5014090;28;20222;-60
2022/04/03 06:48:15;;;;;;;14.97;8.37;;;1.70;99.90;;;;;;4996845;28;20188;-59
2022/04/03 06:50:41;;;;;;;18.23;9.83;;;1.60;99.90;;;;;;5002725;28;20289;-59
2022/04/03 06:53:07;;;;;;;20.53;12.17;;;1.60;99.90;;;;;;5005558;28;20211;-60
2022/04/03 06:55:33;;;;;;;17.40;10.03;;;1.60;99.90;;;;;;5021942;28;20196;-60
2022/04/03 06:57:59;;;;;;;24.53;11.23;;;1.70;99.90;;;;;;5013701;28;20213;-60
2022/04/03 07:00:26;;;;;;;17.60;9.77;;;1.80;99.90;;;;;;5014095;28;20633;-59
2022/04/03 07:02:51;;;;;;;15.57;8.57;;;1.90;99.90;;;;;;5013556;28;20215;-60
2022/04/03 07:05:18;;;;;;;16.97;10.23;;;2.10;99.90;;;;;;5012676;28;20251;-60
2022/04/03 07:07:44;;;;;;;15.97;10.00;;;2.10;99.90;;;;;;5000063;28;20272;-58
2022/04/03 07:10:10;;;;;;;17.97;10.50;;;2.10;99.90;;;;;;5033455;28;20260;-59
2022/04/03 07:12:37;;;;;;;15.33;9.43;;;2.10;99.90;;;;;;5033855;28;20195;-60
2022/04/03 07:15:04;;;;;;;16.63;8.80;;;2.10;99.90;;;;;;5033182;28;20184;-60
2022/04/03 07:17:30;;;;;;;18.03;8.60;;;2.10;99.90;;;;;;5028712;28;20193;-60
2022/04/03 07:19:55;;;;;;;15.37;9.80;;;2.20;99.90;;;;;;5021209;28;20190;-61
2022/04/03 07:22:22;;;;;;;14.07;8.50;;;2.40;99.90;;;;;;5012696;28;20194;-61
2022/04/03 07:24:47;;;;;;;12.83;8.30;;;2.40;99.90;;;;;;5012326;28;20192;-60
2022/04/03 07:27:13;;;;;;;17.07;8.23;;;2.60;99.90;;;;;;5026286;28;20186;-60
2022/04/03 07:29:39;;;;;;;13.93;8.03;;;2.40;99.90;;;;;;5024501;28;20617;-57
2022/04/03 07:32:05;;;;;;;8.77;5.57;;;2.40;99.90;;;;;;5024924;28;20202;-61
2022/04/03 07:34:31;;;;;;;10.33;6.30;;;2.50;99.90;;;;;;5003378;28;20581;-59
2022/04/03 07:36:57;;;;;;;10.70;6.90;;;2.60;99.90;;;;;;5021799;28;20660;-66
2022/04/03 07:39:24;;;;;;;9.57;6.17;;;2.60;99.90;;;;;;5029878;28;20222;-65
2022/04/03 07:41:50;;;;;;;11.47;7.30;;;2.70;99.90;;;;;;5033102;28;20195;-66
2022/04/03 07:44:16;;;;;;;12.13;5.90;;;2.60;99.90;;;;;;5019254;28;20195;-63
2022/04/03 07:46:42;;;;;;;10.47;7.07;;;2.70;99.90;;;;;;5010183;28;20289;-61
2022/04/03 07:49:08;;;;;;;11.63;6.57;;;2.70;99.90;;;;;;5013902;28;20272;-61
2022/04/03 07:51:34;;;;;;;11.07;7.77;;;2.80;99.90;;;;;;5013254;28;20174;-60
2022/04/03 07:54:00;;;;;;;11.17;7.47;;;2.90;99.90;;;;;;5013285;28;20213;-61
2022/04/03 07:56:26;;;;;;;10.23;6.87;;;3.00;99.90;;;;;;5013341;28;20197;-62
2022/04/03 07:58:52;;;;;;;11.63;6.63;;;3.00;99.90;;;;;;5012893;28;20222;-64
2022/04/03 08:01:17;;;;;;;10.20;7.50;;;2.90;99.90;;;;;;5011557;28;20205;-60
2022/04/03 08:03:43;;;;;;;11.80;6.50;;;3.00;99.90;;;;;;5011358;28;20315;-60
2022/04/03 08:06:09;;;;;;;9.50;5.30;;;3.20;99.90;;;;;;5029143;28;20224;-62
2022/04/03 08:08:35;;;;;;;11.47;6.67;;;3.30;99.90;;;;;;5004323;28;20245;-62
2022/04/03 08:11:01;;;;;;;9.07;5.87;;;3.30;99.90;;;;;;5005148;28;20220;-67
2022/04/03 08:13:27;;;;;;;9.57;6.07;;;3.30;99.90;;;;;;5015065;28;20240;-66
2022/04/03 08:15:52;;;;;;;9.20;5.70;;;3.30;99.90;;;;;;5015108;28;20630;-62
2022/04/03 08:18:19;;;;;;;9.77;5.43;;;3.20;99.90;;;;;;5017460;28;20225;-67
2022/04/03 08:20:45;;;;;;;8.93;5.97;;;3.20;99.90;;;;;;5013429;28;20202;-60
2022/04/03 08:23:11;;;;;;;8.53;4.83;;;3.50;99.90;;;;;;5032249;28;20333;-58
2022/04/03 08:25:37;;;;;;;8.13;4.93;;;3.50;99.90;;;;;;5032461;28;20265;-61
2022/04/03 08:28:03;;;;;;;8.07;5.20;;;3.60;99.90;;;;;;5014478;28;20646;-62
2022/04/03 08:30:35;;;;;;;7.30;4.97;;;3.60;99.90;;;;;;5031757;28;20643;-64
2022/04/03 08:33:04;;;;;;;8.00;5.50;;;3.80;99.90;;;;;;5013512;28;20328;-60
2022/04/03 08:35:31;;;;;;;8.83;5.43;;;3.90;99.90;;;;;;5008595;28;20197;-62
2022/04/03 08:37:58;;;;;;;6.03;4.80;;;3.90;99.90;;;;;;5031816;28;20218;-63
2022/04/03 08:40:26;;;;;;;5.03;3.33;;;3.80;99.90;;;;;;5030776;28;20201;-62
2022/04/03 08:42:54;;;;;;;6.17;3.70;;;3.90;99.90;;;;;;5029886;28;20183;-59
2022/04/03 08:45:21;;;;;;;5.23;3.47;;;4.00;99.90;;;;;;5021293;28;20183;-62
2022/04/03 08:47:54;;;;;;;5.53;3.17;;;4.00;99.90;;;;;;5021354;28;20185;-61
2022/04/03 08:50:28;;;;;;;7.03;2.43;;;4.00;99.90;;;;;;5007823;28;20262;-60
2022/04/03 08:52:57;;;;;;;4.30;2.70;;;4.00;99.90;;;;;;5000178;28;20263;-61
2022/04/03 08:55:23;;;;;;;5.93;2.73;;;4.00;99.90;;;;;;4992325;28;20233;-62
2022/04/03 08:57:48;;;;;;;7.67;2.97;;;4.00;99.90;;;;;;4992091;28;20187;-60
2022/04/03 09:00:15;;;;;;;7.97;3.30;;;4.00;99.90;;;;;;4992019;28;20550;-64
2022/04/03 09:02:42;;;;;;;9.13;3.40;;;3.80;99.90;;;;;;5010033;28;20253;-62
2022/04/03 09:05:11;;;;;;;4.90;3.57;;;3.80;99.90;;;;;;5012222;28;20182;-62
2022/04/03 09:07:37;;;;;;;5.77;3.43;;;3.70;99.90;;;;;;5007128;28;20191;-62
2022/04/03 09:10:17;;;;;;;5.27;2.37;;;3.90;99.90;;;;;;4990824;28;20235;-63
2022/04/03 09:12:46;;;;;;;3.63;2.43;;;4.00;99.90;;;;;;4990734;28;20211;-61
2022/04/03 09:15:14;;;;;;;9.37;4.10;;;4.00;99.90;;;;;;4991951;28;20207;-64
2022/04/03 09:18:03;;;;;;;11.63;4.20;;;4.10;99.90;;;;;;4991663;28;20187;-75
2022/04/03 09:20:31;;;;;;;4.53;3.37;;;4.20;99.90;;;;;;4992410;28;20196;-68
2022/04/03 09:23:07;;;;;;;5.83;3.50;;;4.30;99.90;;;;;;5001090;28;20188;-70
2022/04/03 09:25:39;;;;;;;11.63;7.70;;;4.20;99.90;;;;;;5004083;28;21730;-71
2022/04/03 09:28:11;;;;;;;13.27;5.13;;;4.50;99.90;;;;;;5009458;28;20290;-70
2022/04/03 09:30:49;;;;;;;7.57;4.60;;;4.60;99.90;;;;;;5010793;28;20195;-72
2022/04/03 09:33:20;;;;;;;9.17;3.40;;;4.80;99.90;;;;;;5001489;28;20207;-72
2022/04/03 09:36:03;;;;;;;4.83;3.07;;;4.80;99.90;;;;;;5010066;28;20605;-71
2022/04/03 09:38:30;;;;;;;8.10;4.40;;;4.60;99.90;;;;;;5001725;28;20577;-72
2022/04/03 09:40:58;;;;;;;5.17;3.20;;;4.50;99.90;;;;;;5009620;28;20183;-70
2022/04/03 09:43:28;;;;;;;4.00;2.67;;;4.40;99.90;;;;;;4998990;28;20222;-70
2022/04/03 09:45:55;;;;;;;4.97;3.13;;;4.40;99.90;;;;;;5010158;28;20188;-72
2022/04/03 09:48:33;;;;;;;5.20;2.73;;;4.20;99.90;;;;;;4997482;28;20278;-70
2022/04/03 09:51:06;;;;;;;7.53;4.07;;;4.40;99.90;;;;;;5027958;28;20677;-67
2022/04/03 09:54:14;;;;;;;5.93;3.60;;;4.50;99.90;;;;;;5017340;28;20197;-62
2022/04/03 09:56:40;;;;;;;4.33;3.27;;;4.40;99.90;;;;;;5020797;28;20682;-60
2022/04/03 09:59:08;;;;;;;14.33;4.33;;;4.40;99.90;;;;;;5016839;28;20210;-72
2022/04/03 10:01:41;;;;;;;15.43;5.43;;;4.50;99.90;;;;;;5029986;28;20197;-75
2022/04/03 10:04:08;;;;;;;8.20;4.70;;;4.80;99.90;;;;;;5016867;28;20187;-75
2022/04/03 10:06:35;;;;;;;12.60;5.03;;;5.00;99.90;;;;;;5030726;28;20183;-74
2022/04/03 10:09:02;;;;;;;12.43;5.60;;;4.90;99.90;;;;;;5027166;28;20269;-71
2022/04/03 10:11:29;;;;;;;14.30;4.07;;;5.00;99.90;;;;;;5031040;28;20188;-74
2022/04/03 10:13:56;;;;;;;13.53;5.20;;;5.10;99.90;;;;;;5016199;28;20191;-76
2022/04/03 10:16:22;;;;;;;7.17;5.17;;;5.10;99.90;;;;;;5030215;28;20695;-61
2022/04/03 10:18:49;;;;;;;9.30;4.00;;;5.20;99.90;;;;;;5021257;28;20318;-65
2022/04/03 10:21:40;;;;;;;7.97;4.63;;;5.20;99.90;;;;;;5030165;28;20276;-62
2022/04/03 10:24:18;;;;;;;6.50;3.90;;;5.40;99.90;;;;;;5023722;28;20206;-64
2022/04/03 10:26:57;;;;;;;5.00;3.80;;;5.60;99.90;;;;;;5023166;28;20188;-63
2022/04/03 10:29:24;;;;;;;5.80;3.40;;;5.80;99.90;;;;;;5017839;28;20194;-61
2022/04/03 10:32:03;;;;;;;5.30;3.87;;;6.10;99.90;;;;;;5030033;28;20236;-64
2022/04/03 10:34:29;;;;;;;5.93;4.43;;;5.60;99.90;;;;;;5020245;28;20229;-61
2022/04/03 10:36:56;;;;;;;5.80;4.20;;;5.20;99.90;;;;;;5024415;28;20199;-63
2022/04/03 10:39:29;;;;;;;6.37;4.10;;;4.90;99.90;;;;;;5027213;28;20385;-60
2022/04/03 10:42:24;;;;;;;10.70;4.53;;;5.00;99.90;;;;;;5033099;28;20195;-63
2022/04/03 10:45:23;;;;;;;9.77;4.27;;;5.40;99.90;;;;;;5025172;28;20233;-63
2022/04/03 10:47:50;;;;;;;6.27;3.70;;;5.70;99.90;;;;;;5008508;28;20683;-72
2022/04/03 10:50:16;;;;;;;10.80;5.50;;;5.60;99.90;;;;;;5014981;28;20294;-70
2022/04/03 10:52:41;;;;;;;12.40;6.17;;;5.20;99.90;;;;;;5015457;28;20202;-64
2022/04/03 10:55:25;;;;;;;7.07;3.73;;;5.10;99.90;;;;;;5033774;28;20175;-66
2022/04/03 10:58:04;;;;;;;8.80;4.17;;;5.50;99.90;;;;;;5033737;28;20531;-68
2022/04/03 11:00:34;;;;;;;8.87;3.50;;;5.70;99.90;;;;;;5016129;28;20675;-71
2022/04/03 11:03:15;;;;;;;3.80;2.77;;;5.90;99.90;;;;;;5033396;28;20202;-68
2022/04/03 11:05:47;;;;;;;5.00;2.40;;;6.20;99.90;;;;;;5015222;28;20182;-66
2022/04/03 11:08:13;;;;;;;5.70;3.30;;;5.60;99.90;;;;;;5031971;28;20244;-66
2022/04/03 11:10:56;;;;;;;5.93;4.30;;;4.90;99.90;;;;;;5032199;28;20175;-67
2022/04/03 11:13:34;;;;;;;4.97;3.40;;;4.70;99.90;;;;;;5033309;28;20171;-67
2022/04/03 11:16:10;;;;;;;6.47;4.23;;;4.50;99.90;;;;;;5032538;28;20276;-66
2022/04/03 11:18:37;;;;;;;6.97;4.20;;;4.40;99.90;;;;;;5031090;28;20252;-67
2022/04/03 11:21:11;;;;;;;10.37;5.10;;;4.50;99.90;;;;;;5030131;28;20278;-64
2022/04/03 11:23:43;;;;;;;9.67;4.23;;;4.80;99.90;;;;;;5030334;28;20190;-66
2022/04/03 11:26:09;;;;;;;6.83;4.20;;;5.20;99.90;;;;;;5026948;28;20164;-67
2022/04/03 11:28:35;;;;;;;7.20;3.47;;;5.20;99.90;;;;;;5011114;28;20596;-67
2022/04/03 11:31:02;;;;;;;6.37;3.87;;;5.00;99.90;;;;;;5011144;28;20188;-66
2022/04/03 11:33:29;;;;;;;7.60;5.10;;;4.90;99.90;;;;;;5012764;28;20172;-64
2022/04/03 11:35:56;;;;;;;6.83;4.77;;;4.60;99.90;;;;;;5025986;28;20198;-66
2022/04/03 11:38:22;;;;;;;8.07;5.17;;;4.80;99.90;;;;;;5031854;28;20565;-67
2022/04/03 11:40:48;;;;;;;5.80;4.17;;;5.00;99.90;;;;;;5033051;28;20640;-67
2022/04/03 11:43:19;;;;;;;17.17;5.30;;;5.20;99.90;;;;;;5033129;28;20184;-68
2022/04/03 11:45:58;;;;;;;11.43;4.67;;;5.50;99.90;;;;;;5032886;28;20209;-68
2022/04/03 11:48:29;;;;;;;6.50;4.00;;;5.60;99.90;;;;;;5032988;28;20175;-67
2022/04/03 11:51:17;;;;;;;3.60;2.73;;;6.00;99.90;;;;;;5032742;28;20632;-68
2022/04/03 11:53:44;;;;;;;4.57;3.10;;;6.40;99.90;;;;;;5031730;28;20196;-68
2022/04/03 11:56:17;;;;;;;7.87;4.23;;;6.20;99.90;;;;;;5031810;28;20185;-69
2022/04/03 11:58:44;;;;;;;8.97;4.70;;;6.00;99.90;;;;;;5032403;28;20192;-67
2022/04/03 12:01:11;;;;;;;17.90;5.33;;;5.90;99.90;;;;;;5032715;28;20303;-67
2022/04/03 12:03:37;;;;;;;8.87;4.47;;;6.20;99.90;;;;;;5032940;28;20246;-69
2022/04/03 12:06:17;;;;;;;5.67;3.60;;;6.30;99.90;;;;;;5032736;28;20534;-67
2022/04/03 12:08:48;;;;;;;6.07;3.60;;;6.70;99.90;;;;;;5032879;28;20178;-67
2022/04/03 12:11:32;;;;;;;9.30;5.03;;;7.00;99.90;;;;;;5014507;28;20221;-67
2022/04/03 12:14:00;;;;;;;4.40;2.93;;;7.40;99.90;;;;;;5033724;28;20671;-68
2022/04/03 12:16:31;;;;;;;5.97;3.90;;;7.00;99.60;;;;;;5032304;28;20182;-67
2022/04/03 12:19:02;;;;;;;5.20;3.57;;;6.50;99.90;;;;;;5032553;28;20267;-67
2022/04/03 12:21:41;;;;;;;8.63;4.73;;;5.70;99.90;;;;;;5031795;28;20181;-66
2022/04/03 12:24:15;;;;;;;10.27;5.70;;;5.30;99.90;;;;;;5014436;28;20245;-65
2022/04/03 12:26:50;;;;;;;6.53;3.93;;;5.30;99.90;;;;;;5014974;28;20183;-67
2022/04/03 12:29:17;;;;;;;8.13;4.93;;;4.80;99.90;;;;;;5032032;28;20185;-66
2022/04/03 12:31:54;;;;;;;5.63;3.60;;;4.50;99.90;;;;;;5014540;28;20182;-68
2022/04/03 12:34:21;;;;;;;5.37;4.03;;;4.30;99.90;;;;;;5014343;28;20182;-69
2022/04/03 12:36:52;;;;;;;7.60;5.07;;;3.90;99.90;;;;;;5012568;28;20188;-67
2022/04/03 12:39:36;;;;;;;11.47;6.33;;;3.80;99.90;;;;;;5011813;28;20222;-68
2022/04/03 12:42:17;;;;;;;11.67;7.23;;;3.70;99.90;;;;;;5012705;28;20190;-67
2022/04/03 12:45:27;;;;;;;11.70;8.17;;;3.80;99.90;;;;;;5012403;28;20190;-68
2022/04/03 12:47:59;;;;;;;7.87;5.30;;;3.80;99.90;;;;;;4913390;29;20197;-68